sensor_id;sensor_type;location;lat;lon;timestamp;P1;durP1;ratioP1;P2;durP2;ratioP2
19436;SDS011;9854;50.968;4.168;2023-07-08T00:01:36;14.50;;;5.93;;
19436;SDS011;9854;50.968;4.168;2023-07-08T00:04:01;7.40;;;5.63;;
19436;SDS011;9854;50.968;4.168;2023-07-08T00:06:28;7.55;;;5.55;;
19436;SDS011;9854;50.968;4.168;2023-07-08T00:08:54;5.78;;;5.18;;
19436;SDS011;9854;50.968;4.168;2023-07-08T00:11:20;8.65;;;5.38;;
19436;SDS011;9854;50.968;4.168;2023-07-08T00:13:46;14.48;;;5.75;;
19436;SDS011;9854;50.968;4.168;2023-07-08T00:16:13;14.65;;;6.22;;
19436;SDS011;9854;50.968;4.168;2023-07-08T00:18:40;9.70;;;5.28;;
19436;SDS011;9854;50.968;4.168;2023-07-08T00:21:12;7.10;;;5.57;;
19436;SDS011;9854;50.968;4.168;2023-07-08T00:23:47;9.30;;;5.38;;
19436;SDS011;9854;50.968;4.168;2023-07-08T00:28:49;9.40;;;6.70;;
19436;SDS011;9854;50.968;4.168;2023-07-08T00:31:15;8.60;;;6.45;;
19436;SDS011;9854;50.968;4.168;2023-07-08T00:33:41;9.60;;;5.88;;
19436;SDS011;9854;50.968;4.168;2023-07-08T00:36:12;5.95;;;5.35;;
19436;SDS011;9854;50.968;4.168;2023-07-08T00:38:40;5.72;;;5.22;;
19436;SDS011;9854;50.968;4.168;2023-07-08T00:41:14;11.23;;;5.72;;
19436;SDS011;9854;50.968;4.168;2023-07-08T00:44:09;7.20;;;5.63;;
19436;SDS011;9854;50.968;4.168;2023-07-08T00:49:36;8.32;;;5.53;;
19436;SDS011;9854;50.968;4.168;2023-07-08T00:52:24;12.57;;;5.88;;
19436;SDS011;9854;50.968;4.168;2023-07-08T00:55:06;8.13;;;5.80;;
19436;SDS011;9854;50.968;4.168;2023-07-08T00:57:35;11.25;;;5.70;;
19436;SDS011;9854;50.968;4.168;2023-07-08T01:00:05;7.28;;;5.82;;
19436;SDS011;9854;50.968;4.168;2023-07-08T01:02:42;9.23;;;6.55;;
19436;SDS011;9854;50.968;4.168;2023-07-08T01:05:17;12.05;;;5.95;;
19436;SDS011;9854;50.968;4.168;2023-07-08T01:07:45;8.02;;;6.32;;
19436;SDS011;9854;50.968;4.168;2023-07-08T01:10:22;8.57;;;5.93;;
19436;SDS011;9854;50.968;4.168;2023-07-08T01:13:11;9.18;;;6.72;;
19436;SDS011;9854;50.968;4.168;2023-07-08T01:15:41;11.65;;;5.78;;
19436;SDS011;9854;50.968;4.168;2023-07-08T01:18:09;12.40;;;6.18;;
19436;SDS011;9854;50.968;4.168;2023-07-08T01:20:36;6.43;;;5.65;;
19436;SDS011;9854;50.968;4.168;2023-07-08T01:23:03;6.75;;;5.75;;
19436;SDS011;9854;50.968;4.168;2023-07-08T01:25:30;8.15;;;6.25;;
19436;SDS011;9854;50.968;4.168;2023-07-08T01:27:56;7.97;;;6.15;;
19436;SDS011;9854;50.968;4.168;2023-07-08T01:30:23;7.95;;;5.82;;
19436;SDS011;9854;50.968;4.168;2023-07-08T01:32:49;10.52;;;6.13;;
19436;SDS011;9854;50.968;4.168;2023-07-08T01:35:19;9.75;;;6.32;;
19436;SDS011;9854;50.968;4.168;2023-07-08T01:37:50;7.95;;;6.20;;
19436;SDS011;9854;50.968;4.168;2023-07-08T01:42:44;9.32;;;6.22;;
19436;SDS011;9854;50.968;4.168;2023-07-08T01:45:10;9.00;;;6.15;;
19436;SDS011;9854;50.968;4.168;2023-07-08T01:47:38;14.68;;;6.53;;
19436;SDS011;9854;50.968;4.168;2023-07-08T01:50:04;9.50;;;6.28;;
19436;SDS011;9854;50.968;4.168;2023-07-08T01:52:30;9.23;;;6.85;;
19436;SDS011;9854;50.968;4.168;2023-07-08T01:54:56;6.68;;;6.05;;
19436;SDS011;9854;50.968;4.168;2023-07-08T01:57:21;7.28;;;6.38;;
19436;SDS011;9854;50.968;4.168;2023-07-08T01:59:47;8.13;;;5.60;;
19436;SDS011;9854;50.968;4.168;2023-07-08T02:02:13;9.20;;;6.95;;
19436;SDS011;9854;50.968;4.168;2023-07-08T02:04:38;7.85;;;6.03;;
19436;SDS011;9854;50.968;4.168;2023-07-08T02:07:04;6.75;;;6.03;;
19436;SDS011;9854;50.968;4.168;2023-07-08T02:09:30;7.03;;;6.15;;
19436;SDS011;9854;50.968;4.168;2023-07-08T02:11:56;6.65;;;5.88;;
19436;SDS011;9854;50.968;4.168;2023-07-08T02:14:21;9.77;;;6.75;;
19436;SDS011;9854;50.968;4.168;2023-07-08T02:16:47;7.78;;;5.85;;
19436;SDS011;9854;50.968;4.168;2023-07-08T02:19:13;8.00;;;6.40;;
19436;SDS011;9854;50.968;4.168;2023-07-08T02:21:39;8.75;;;6.38;;
19436;SDS011;9854;50.968;4.168;2023-07-08T02:24:05;9.52;;;5.55;;
19436;SDS011;9854;50.968;4.168;2023-07-08T02:26:31;6.57;;;5.97;;
19436;SDS011;9854;50.968;4.168;2023-07-08T02:29:00;10.52;;;5.93;;
19436;SDS011;9854;50.968;4.168;2023-07-08T02:31:26;9.10;;;6.80;;
19436;SDS011;9854;50.968;4.168;2023-07-08T02:33:52;8.52;;;6.75;;
19436;SDS011;9854;50.968;4.168;2023-07-08T02:36:18;12.73;;;6.75;;
19436;SDS011;9854;50.968;4.168;2023-07-08T02:38:44;12.77;;;6.70;;
19436;SDS011;9854;50.968;4.168;2023-07-08T02:41:10;6.95;;;6.18;;
19436;SDS011;9854;50.968;4.168;2023-07-08T02:43:36;7.60;;;6.47;;
19436;SDS011;9854;50.968;4.168;2023-07-08T02:46:03;7.97;;;7.05;;
19436;SDS011;9854;50.968;4.168;2023-07-08T02:48:28;7.38;;;6.00;;
19436;SDS011;9854;50.968;4.168;2023-07-08T02:51:04;7.72;;;6.53;;
19436;SDS011;9854;50.968;4.168;2023-07-08T02:53:30;9.52;;;7.07;;
19436;SDS011;9854;50.968;4.168;2023-07-08T02:55:56;10.88;;;6.47;;
19436;SDS011;9854;50.968;4.168;2023-07-08T02:58:22;9.85;;;6.53;;
19436;SDS011;9854;50.968;4.168;2023-07-08T03:00:52;9.40;;;6.88;;
19436;SDS011;9854;50.968;4.168;2023-07-08T03:03:18;8.88;;;6.72;;
19436;SDS011;9854;50.968;4.168;2023-07-08T03:05:43;7.25;;;6.55;;
19436;SDS011;9854;50.968;4.168;2023-07-08T03:08:09;6.82;;;6.22;;
19436;SDS011;9854;50.968;4.168;2023-07-08T03:10:35;8.73;;;7.15;;
19436;SDS011;9854;50.968;4.168;2023-07-08T03:13:00;7.70;;;6.47;;
19436;SDS011;9854;50.968;4.168;2023-07-08T03:15:26;7.63;;;6.38;;
19436;SDS011;9854;50.968;4.168;2023-07-08T03:17:51;10.98;;;6.93;;
19436;SDS011;9854;50.968;4.168;2023-07-08T03:20:24;8.32;;;7.47;;
19436;SDS011;9854;50.968;4.168;2023-07-08T03:22:50;12.50;;;7.20;;
19436;SDS011;9854;50.968;4.168;2023-07-08T03:25:16;9.60;;;6.68;;
19436;SDS011;9854;50.968;4.168;2023-07-08T03:27:44;8.00;;;6.75;;
19436;SDS011;9854;50.968;4.168;2023-07-08T03:30:10;11.80;;;7.57;;
19436;SDS011;9854;50.968;4.168;2023-07-08T03:32:36;7.55;;;6.85;;
19436;SDS011;9854;50.968;4.168;2023-07-08T03:35:01;12.70;;;7.05;;
19436;SDS011;9854;50.968;4.168;2023-07-08T03:37:27;11.02;;;7.30;;
19436;SDS011;9854;50.968;4.168;2023-07-08T03:39:53;12.00;;;7.20;;
19436;SDS011;9854;50.968;4.168;2023-07-08T03:42:18;7.57;;;6.78;;
19436;SDS011;9854;50.968;4.168;2023-07-08T03:44:44;13.48;;;6.72;;
19436;SDS011;9854;50.968;4.168;2023-07-08T03:47:10;9.88;;;7.20;;
19436;SDS011;9854;50.968;4.168;2023-07-08T03:49:35;7.40;;;6.32;;
19436;SDS011;9854;50.968;4.168;2023-07-08T03:52:01;9.82;;;6.68;;
19436;SDS011;9854;50.968;4.168;2023-07-08T03:54:26;11.75;;;6.82;;
19436;SDS011;9854;50.968;4.168;2023-07-08T03:56:52;8.02;;;6.47;;
19436;SDS011;9854;50.968;4.168;2023-07-08T03:59:18;10.73;;;6.75;;
19436;SDS011;9854;50.968;4.168;2023-07-08T04:01:44;10.20;;;6.45;;
19436;SDS011;9854;50.968;4.168;2023-07-08T04:04:11;12.93;;;6.82;;
19436;SDS011;9854;50.968;4.168;2023-07-08T04:06:37;11.57;;;7.15;;
19436;SDS011;9854;50.968;4.168;2023-07-08T04:09:03;9.65;;;6.40;;
19436;SDS011;9854;50.968;4.168;2023-07-08T04:11:29;9.60;;;6.57;;
19436;SDS011;9854;50.968;4.168;2023-07-08T04:13:54;10.90;;;7.00;;
19436;SDS011;9854;50.968;4.168;2023-07-08T04:16:23;8.00;;;7.18;;
19436;SDS011;9854;50.968;4.168;2023-07-08T04:18:55;11.07;;;7.43;;
19436;SDS011;9854;50.968;4.168;2023-07-08T04:21:24;13.43;;;7.63;;
19436;SDS011;9854;50.968;4.168;2023-07-08T04:23:50;10.40;;;6.80;;
19436;SDS011;9854;50.968;4.168;2023-07-08T04:26:16;12.20;;;7.70;;
19436;SDS011;9854;50.968;4.168;2023-07-08T04:28:43;10.15;;;7.38;;
19436;SDS011;9854;50.968;4.168;2023-07-08T04:31:09;10.55;;;7.18;;
19436;SDS011;9854;50.968;4.168;2023-07-08T04:33:35;8.00;;;6.63;;
19436;SDS011;9854;50.968;4.168;2023-07-08T04:36:00;9.18;;;6.82;;
19436;SDS011;9854;50.968;4.168;2023-07-08T04:38:26;11.68;;;7.32;;
19436;SDS011;9854;50.968;4.168;2023-07-08T04:40:53;10.40;;;7.00;;
19436;SDS011;9854;50.968;4.168;2023-07-08T04:43:19;9.80;;;7.35;;
19436;SDS011;9854;50.968;4.168;2023-07-08T04:45:50;15.10;;;7.32;;
19436;SDS011;9854;50.968;4.168;2023-07-08T04:48:18;15.10;;;7.22;;
19436;SDS011;9854;50.968;4.168;2023-07-08T04:50:47;10.43;;;6.95;;
19436;SDS011;9854;50.968;4.168;2023-07-08T04:53:15;12.43;;;7.05;;
19436;SDS011;9854;50.968;4.168;2023-07-08T04:55:45;13.48;;;7.35;;
19436;SDS011;9854;50.968;4.168;2023-07-08T04:58:15;8.77;;;6.95;;
19436;SDS011;9854;50.968;4.168;2023-07-08T05:00:40;10.10;;;6.97;;
19436;SDS011;9854;50.968;4.168;2023-07-08T05:03:06;9.70;;;7.20;;
19436;SDS011;9854;50.968;4.168;2023-07-08T05:05:32;9.40;;;7.45;;
19436;SDS011;9854;50.968;4.168;2023-07-08T05:07:57;8.25;;;7.35;;
19436;SDS011;9854;50.968;4.168;2023-07-08T05:10:23;10.82;;;7.03;;
19436;SDS011;9854;50.968;4.168;2023-07-08T05:12:48;9.82;;;7.30;;
19436;SDS011;9854;50.968;4.168;2023-07-08T05:15:14;13.15;;;6.95;;
19436;SDS011;9854;50.968;4.168;2023-07-08T05:17:41;14.43;;;7.13;;
19436;SDS011;9854;50.968;4.168;2023-07-08T05:20:07;12.48;;;7.15;;
19436;SDS011;9854;50.968;4.168;2023-07-08T05:22:35;11.43;;;6.82;;
19436;SDS011;9854;50.968;4.168;2023-07-08T05:25:01;10.20;;;6.97;;
19436;SDS011;9854;50.968;4.168;2023-07-08T05:27:28;10.15;;;7.15;;
19436;SDS011;9854;50.968;4.168;2023-07-08T05:29:54;10.73;;;6.55;;
19436;SDS011;9854;50.968;4.168;2023-07-08T05:32:20;7.97;;;6.78;;
19436;SDS011;9854;50.968;4.168;2023-07-08T05:34:46;8.35;;;6.53;;
19436;SDS011;9854;50.968;4.168;2023-07-08T05:37:12;10.05;;;6.35;;
19436;SDS011;9854;50.968;4.168;2023-07-08T05:39:38;10.45;;;7.18;;
19436;SDS011;9854;50.968;4.168;2023-07-08T05:42:04;10.50;;;6.88;;
19436;SDS011;9854;50.968;4.168;2023-07-08T05:44:29;7.55;;;6.63;;
19436;SDS011;9854;50.968;4.168;2023-07-08T05:46:55;10.43;;;6.28;;
19436;SDS011;9854;50.968;4.168;2023-07-08T05:49:21;10.98;;;6.40;;
19436;SDS011;9854;50.968;4.168;2023-07-08T05:51:47;9.90;;;6.95;;
19436;SDS011;9854;50.968;4.168;2023-07-08T05:54:13;9.65;;;6.10;;
19436;SDS011;9854;50.968;4.168;2023-07-08T05:56:39;11.57;;;6.63;;
19436;SDS011;9854;50.968;4.168;2023-07-08T05:59:05;10.63;;;6.85;;
19436;SDS011;9854;50.968;4.168;2023-07-08T06:01:31;11.68;;;6.93;;
19436;SDS011;9854;50.968;4.168;2023-07-08T06:03:57;11.90;;;6.65;;
19436;SDS011;9854;50.968;4.168;2023-07-08T06:06:26;13.48;;;6.60;;
19436;SDS011;9854;50.968;4.168;2023-07-08T06:08:52;9.75;;;6.55;;
19436;SDS011;9854;50.968;4.168;2023-07-08T06:11:18;10.57;;;6.90;;
19436;SDS011;9854;50.968;4.168;2023-07-08T06:13:44;9.48;;;5.93;;
19436;SDS011;9854;50.968;4.168;2023-07-08T06:16:10;10.07;;;6.78;;
19436;SDS011;9854;50.968;4.168;2023-07-08T06:18:36;11.98;;;6.70;;
19436;SDS011;9854;50.968;4.168;2023-07-08T06:21:02;9.65;;;5.82;;
19436;SDS011;9854;50.968;4.168;2023-07-08T06:23:28;12.82;;;6.25;;
19436;SDS011;9854;50.968;4.168;2023-07-08T06:25:53;11.48;;;6.32;;
19436;SDS011;9854;50.968;4.168;2023-07-08T06:28:19;11.20;;;6.63;;
19436;SDS011;9854;50.968;4.168;2023-07-08T06:30:45;7.22;;;6.18;;
19436;SDS011;9854;50.968;4.168;2023-07-08T06:33:11;10.98;;;6.00;;
19436;SDS011;9854;50.968;4.168;2023-07-08T06:35:38;13.10;;;6.65;;
19436;SDS011;9854;50.968;4.168;2023-07-08T06:38:05;8.60;;;6.47;;
19436;SDS011;9854;50.968;4.168;2023-07-08T06:40:31;7.13;;;5.72;;
19436;SDS011;9854;50.968;4.168;2023-07-08T06:42:57;8.82;;;5.97;;
19436;SDS011;9854;50.968;4.168;2023-07-08T06:45:23;10.33;;;6.03;;
19436;SDS011;9854;50.968;4.168;2023-07-08T06:47:49;8.77;;;5.70;;
19436;SDS011;9854;50.968;4.168;2023-07-08T06:50:14;9.60;;;5.85;;
19436;SDS011;9854;50.968;4.168;2023-07-08T06:52:40;7.85;;;6.50;;
19436;SDS011;9854;50.968;4.168;2023-07-08T06:55:07;9.43;;;5.90;;
19436;SDS011;9854;50.968;4.168;2023-07-08T06:57:34;8.50;;;6.03;;
19436;SDS011;9854;50.968;4.168;2023-07-08T07:00:00;10.07;;;6.15;;
19436;SDS011;9854;50.968;4.168;2023-07-08T07:02:27;10.90;;;6.18;;
19436;SDS011;9854;50.968;4.168;2023-07-08T07:04:53;9.10;;;6.03;;
19436;SDS011;9854;50.968;4.168;2023-07-08T07:07:20;7.72;;;5.90;;
19436;SDS011;9854;50.968;4.168;2023-07-08T07:09:45;11.52;;;7.00;;
19436;SDS011;9854;50.968;4.168;2023-07-08T07:12:11;6.75;;;5.60;;
19436;SDS011;9854;50.968;4.168;2023-07-08T07:14:37;13.40;;;6.75;;
19436;SDS011;9854;50.968;4.168;2023-07-08T07:17:02;8.02;;;5.55;;
19436;SDS011;9854;50.968;4.168;2023-07-08T07:19:28;8.82;;;5.90;;
19436;SDS011;9854;50.968;4.168;2023-07-08T07:21:54;14.10;;;6.47;;
19436;SDS011;9854;50.968;4.168;2023-07-08T07:24:19;12.95;;;6.25;;
19436;SDS011;9854;50.968;4.168;2023-07-08T07:26:45;8.93;;;5.90;;
19436;SDS011;9854;50.968;4.168;2023-07-08T07:29:10;7.18;;;6.15;;
19436;SDS011;9854;50.968;4.168;2023-07-08T07:31:36;8.18;;;6.32;;
19436;SDS011;9854;50.968;4.168;2023-07-08T07:34:04;7.30;;;6.30;;
19436;SDS011;9854;50.968;4.168;2023-07-08T07:36:30;9.13;;;6.05;;
19436;SDS011;9854;50.968;4.168;2023-07-08T07:38:56;7.53;;;6.32;;
19436;SDS011;9854;50.968;4.168;2023-07-08T07:41:21;11.38;;;6.22;;
19436;SDS011;9854;50.968;4.168;2023-07-08T07:43:48;11.82;;;6.50;;
19436;SDS011;9854;50.968;4.168;2023-07-08T07:46:14;11.45;;;6.03;;
19436;SDS011;9854;50.968;4.168;2023-07-08T07:48:39;7.90;;;6.57;;
19436;SDS011;9854;50.968;4.168;2023-07-08T07:51:05;7.07;;;5.95;;
19436;SDS011;9854;50.968;4.168;2023-07-08T07:53:35;13.07;;;6.72;;
19436;SDS011;9854;50.968;4.168;2023-07-08T07:56:04;9.63;;;6.25;;
19436;SDS011;9854;50.968;4.168;2023-07-08T07:58:30;12.02;;;6.25;;
19436;SDS011;9854;50.968;4.168;2023-07-08T08:00:56;8.50;;;5.93;;
19436;SDS011;9854;50.968;4.168;2023-07-08T08:03:21;8.05;;;5.65;;
19436;SDS011;9854;50.968;4.168;2023-07-08T08:05:47;8.18;;;6.40;;
19436;SDS011;9854;50.968;4.168;2023-07-08T08:08:14;16.90;;;7.00;;
19436;SDS011;9854;50.968;4.168;2023-07-08T08:10:40;9.98;;;6.00;;
19436;SDS011;9854;50.968;4.168;2023-07-08T08:13:07;8.57;;;6.18;;
19436;SDS011;9854;50.968;4.168;2023-07-08T08:15:33;12.70;;;6.95;;
19436;SDS011;9854;50.968;4.168;2023-07-08T08:17:59;14.13;;;6.80;;
19436;SDS011;9854;50.968;4.168;2023-07-08T08:20:25;11.02;;;6.93;;
19436;SDS011;9854;50.968;4.168;2023-07-08T08:22:51;9.27;;;6.35;;
19436;SDS011;9854;50.968;4.168;2023-07-08T08:25:17;11.48;;;6.97;;
19436;SDS011;9854;50.968;4.168;2023-07-08T08:27:44;10.68;;;6.80;;
19436;SDS011;9854;50.968;4.168;2023-07-08T08:30:10;8.68;;;6.78;;
19436;SDS011;9854;50.968;4.168;2023-07-08T08:32:36;8.52;;;5.88;;
19436;SDS011;9854;50.968;4.168;2023-07-08T08:35:02;9.60;;;6.80;;
19436;SDS011;9854;50.968;4.168;2023-07-08T08:37:28;11.20;;;7.18;;
19436;SDS011;9854;50.968;4.168;2023-07-08T08:39:54;10.27;;;6.43;;
19436;SDS011;9854;50.968;4.168;2023-07-08T08:42:27;15.82;;;7.65;;
19436;SDS011;9854;50.968;4.168;2023-07-08T08:45:15;15.20;;;8.05;;
19436;SDS011;9854;50.968;4.168;2023-07-08T08:47:45;18.17;;;8.32;;
19436;SDS011;9854;50.968;4.168;2023-07-08T08:53:05;13.38;;;7.47;;
19436;SDS011;9854;50.968;4.168;2023-07-08T08:55:37;12.70;;;7.55;;
19436;SDS011;9854;50.968;4.168;2023-07-08T08:58:13;11.25;;;6.72;;
19436;SDS011;9854;50.968;4.168;2023-07-08T09:00:56;12.43;;;7.30;;
19436;SDS011;9854;50.968;4.168;2023-07-08T09:06:07;7.85;;;6.00;;
19436;SDS011;9854;50.968;4.168;2023-07-08T09:08:46;11.50;;;6.50;;
19436;SDS011;9854;50.968;4.168;2023-07-08T09:13:56;11.35;;;6.95;;
19436;SDS011;9854;50.968;4.168;2023-07-08T09:19:35;11.35;;;6.78;;
19436;SDS011;9854;50.968;4.168;2023-07-08T09:22:16;8.57;;;6.97;;
19436;SDS011;9854;50.968;4.168;2023-07-08T09:24:48;10.10;;;7.00;;
19436;SDS011;9854;50.968;4.168;2023-07-08T09:27:16;11.07;;;6.68;;
19436;SDS011;9854;50.968;4.168;2023-07-08T09:29:42;11.52;;;6.93;;
19436;SDS011;9854;50.968;4.168;2023-07-08T09:32:15;13.82;;;7.20;;
19436;SDS011;9854;50.968;4.168;2023-07-08T09:34:51;16.63;;;6.95;;
19436;SDS011;9854;50.968;4.168;2023-07-08T09:39:52;8.00;;;6.55;;
19436;SDS011;9854;50.968;4.168;2023-07-08T09:42:19;16.17;;;7.20;;
19436;SDS011;9854;50.968;4.168;2023-07-08T09:44:47;10.88;;;6.60;;
19436;SDS011;9854;50.968;4.168;2023-07-08T09:47:23;11.32;;;6.55;;
19436;SDS011;9854;50.968;4.168;2023-07-08T09:49:56;9.00;;;6.78;;
19436;SDS011;9854;50.968;4.168;2023-07-08T09:52:22;8.95;;;6.25;;
19436;SDS011;9854;50.968;4.168;2023-07-08T09:54:49;10.32;;;6.68;;
19436;SDS011;9854;50.968;4.168;2023-07-08T09:59:57;9.05;;;5.72;;
19436;SDS011;9854;50.968;4.168;2023-07-08T10:02:44;9.43;;;5.97;;
19436;SDS011;9854;50.968;4.168;2023-07-08T10:05:33;10.27;;;6.22;;
19436;SDS011;9854;50.968;4.168;2023-07-08T10:08:03;8.88;;;6.03;;
19436;SDS011;9854;50.968;4.168;2023-07-08T10:10:55;11.45;;;6.25;;
19436;SDS011;9854;50.968;4.168;2023-07-08T10:13:28;8.65;;;6.38;;
19436;SDS011;9854;50.968;4.168;2023-07-08T10:18:41;11.20;;;5.72;;
19436;SDS011;9854;50.968;4.168;2023-07-08T10:29:48;10.20;;;5.63;;
19436;SDS011;9854;50.968;4.168;2023-07-08T10:35:34;8.48;;;5.22;;
19436;SDS011;9854;50.968;4.168;2023-07-08T10:43:18;11.65;;;6.20;;
19436;SDS011;9854;50.968;4.168;2023-07-08T10:48:59;8.23;;;5.72;;
19436;SDS011;9854;50.968;4.168;2023-07-08T10:57:42;11.98;;;5.53;;
19436;SDS011;9854;50.968;4.168;2023-07-08T11:03:09;8.43;;;6.50;;
19436;SDS011;9854;50.968;4.168;2023-07-08T11:09:06;10.70;;;6.35;;
19436;SDS011;9854;50.968;4.168;2023-07-08T11:14:03;6.50;;;5.85;;
19436;SDS011;9854;50.968;4.168;2023-07-08T11:16:44;14.00;;;6.35;;
19436;SDS011;9854;50.968;4.168;2023-07-08T11:19:24;6.28;;;5.60;;
19436;SDS011;9854;50.968;4.168;2023-07-08T11:21:57;10.23;;;5.78;;
19436;SDS011;9854;50.968;4.168;2023-07-08T11:27:13;10.07;;;5.97;;
19436;SDS011;9854;50.968;4.168;2023-07-08T11:32:22;6.95;;;5.80;;
19436;SDS011;9854;50.968;4.168;2023-07-08T11:34:52;18.85;;;6.20;;
19436;SDS011;9854;50.968;4.168;2023-07-08T11:37:20;14.55;;;6.18;;
19436;SDS011;9854;50.968;4.168;2023-07-08T11:39:47;7.88;;;5.55;;
19436;SDS011;9854;50.968;4.168;2023-07-08T11:42:34;12.48;;;6.75;;
19436;SDS011;9854;50.968;4.168;2023-07-08T11:45:07;7.18;;;5.57;;
19436;SDS011;9854;50.968;4.168;2023-07-08T11:47:41;15.25;;;5.88;;
19436;SDS011;9854;50.968;4.168;2023-07-08T11:52:52;7.35;;;5.95;;
19436;SDS011;9854;50.968;4.168;2023-07-08T11:55:35;7.20;;;6.50;;
19436;SDS011;9854;50.968;4.168;2023-07-08T11:58:08;9.20;;;7.15;;
19436;SDS011;9854;50.968;4.168;2023-07-08T12:00:57;9.07;;;6.78;;
19436;SDS011;9854;50.968;4.168;2023-07-08T12:08:53;9.18;;;6.40;;
19436;SDS011;9854;50.968;4.168;2023-07-08T12:11:24;15.48;;;6.40;;
19436;SDS011;9854;50.968;4.168;2023-07-08T12:13:53;10.60;;;7.03;;
19436;SDS011;9854;50.968;4.168;2023-07-08T12:16:23;12.65;;;6.82;;
19436;SDS011;9854;50.968;4.168;2023-07-08T12:18:50;10.13;;;6.38;;
19436;SDS011;9854;50.968;4.168;2023-07-08T12:21:17;6.25;;;5.72;;
19436;SDS011;9854;50.968;4.168;2023-07-08T12:23:46;8.82;;;6.28;;
19436;SDS011;9854;50.968;4.168;2023-07-08T12:26:13;9.38;;;6.53;;
19436;SDS011;9854;50.968;4.168;2023-07-08T12:28:40;11.23;;;6.53;;
19436;SDS011;9854;50.968;4.168;2023-07-08T12:31:10;7.05;;;5.75;;
19436;SDS011;9854;50.968;4.168;2023-07-08T12:33:43;8.63;;;6.15;;
19436;SDS011;9854;50.968;4.168;2023-07-08T12:36:10;9.02;;;6.28;;
19436;SDS011;9854;50.968;4.168;2023-07-08T12:38:41;6.75;;;6.15;;
19436;SDS011;9854;50.968;4.168;2023-07-08T12:41:12;7.82;;;6.25;;
19436;SDS011;9854;50.968;4.168;2023-07-08T12:43:41;7.97;;;6.03;;
19436;SDS011;9854;50.968;4.168;2023-07-08T12:46:08;7.32;;;6.10;;
19436;SDS011;9854;50.968;4.168;2023-07-08T12:48:38;11.20;;;6.18;;
19436;SDS011;9854;50.968;4.168;2023-07-08T12:51:11;8.05;;;6.00;;
19436;SDS011;9854;50.968;4.168;2023-07-08T12:53:39;9.90;;;6.00;;
19436;SDS011;9854;50.968;4.168;2023-07-08T12:56:06;8.68;;;5.63;;
19436;SDS011;9854;50.968;4.168;2023-07-08T12:58:36;10.52;;;6.25;;
19436;SDS011;9854;50.968;4.168;2023-07-08T13:01:05;9.55;;;5.53;;
19436;SDS011;9854;50.968;4.168;2023-07-08T13:03:40;7.90;;;6.07;;
19436;SDS011;9854;50.968;4.168;2023-07-08T13:06:09;8.77;;;6.00;;
19436;SDS011;9854;50.968;4.168;2023-07-08T13:08:36;6.45;;;5.47;;
19436;SDS011;9854;50.968;4.168;2023-07-08T13:11:04;7.38;;;5.38;;
19436;SDS011;9854;50.968;4.168;2023-07-08T13:13:34;11.27;;;5.53;;
19436;SDS011;9854;50.968;4.168;2023-07-08T13:16:03;8.52;;;5.55;;
19436;SDS011;9854;50.968;4.168;2023-07-08T13:18:33;11.30;;;5.97;;
19436;SDS011;9854;50.968;4.168;2023-07-08T13:21:01;8.85;;;5.00;;
19436;SDS011;9854;50.968;4.168;2023-07-08T13:23:28;9.65;;;4.65;;
19436;SDS011;9854;50.968;4.168;2023-07-08T13:25:54;6.03;;;4.38;;
19436;SDS011;9854;50.968;4.168;2023-07-08T13:28:35;8.27;;;4.82;;
19436;SDS011;9854;50.968;4.168;2023-07-08T13:31:13;7.63;;;5.03;;
19436;SDS011;9854;50.968;4.168;2023-07-08T13:33:47;17.83;;;5.60;;
19436;SDS011;9854;50.968;4.168;2023-07-08T13:36:18;8.73;;;4.43;;
19436;SDS011;9854;50.968;4.168;2023-07-08T13:38:46;7.60;;;4.97;;
19436;SDS011;9854;50.968;4.168;2023-07-08T13:41:16;7.40;;;5.50;;
19436;SDS011;9854;50.968;4.168;2023-07-08T13:43:45;12.65;;;4.57;;
19436;SDS011;9854;50.968;4.168;2023-07-08T13:49:20;10.40;;;5.03;;
19436;SDS011;9854;50.968;4.168;2023-07-08T13:51:55;13.80;;;4.25;;
19436;SDS011;9854;50.968;4.168;2023-07-08T13:54:37;13.77;;;4.53;;
19436;SDS011;9854;50.968;4.168;2023-07-08T13:57:10;7.25;;;4.18;;
19436;SDS011;9854;50.968;4.168;2023-07-08T13:59:37;12.55;;;4.63;;
19436;SDS011;9854;50.968;4.168;2023-07-08T14:02:17;8.18;;;3.63;;
19436;SDS011;9854;50.968;4.168;2023-07-08T14:04:48;14.30;;;4.25;;
19436;SDS011;9854;50.968;4.168;2023-07-08T14:07:20;7.10;;;3.63;;
19436;SDS011;9854;50.968;4.168;2023-07-08T14:09:48;7.93;;;4.15;;
19436;SDS011;9854;50.968;4.168;2023-07-08T14:12:14;7.70;;;3.90;;
19436;SDS011;9854;50.968;4.168;2023-07-08T14:14:40;6.50;;;4.45;;
19436;SDS011;9854;50.968;4.168;2023-07-08T14:17:08;13.48;;;4.78;;
19436;SDS011;9854;50.968;4.168;2023-07-08T14:19:37;12.65;;;4.68;;
19436;SDS011;9854;50.968;4.168;2023-07-08T14:24:38;12.90;;;4.80;;
19436;SDS011;9854;50.968;4.168;2023-07-08T14:27:05;10.63;;;4.43;;
19436;SDS011;9854;50.968;4.168;2023-07-08T14:29:37;12.85;;;4.75;;
19436;SDS011;9854;50.968;4.168;2023-07-08T14:32:03;14.95;;;4.60;;
19436;SDS011;9854;50.968;4.168;2023-07-08T14:34:29;7.75;;;4.10;;
19436;SDS011;9854;50.968;4.168;2023-07-08T14:36:57;6.47;;;4.07;;
19436;SDS011;9854;50.968;4.168;2023-07-08T14:39:23;12.57;;;4.60;;
19436;SDS011;9854;50.968;4.168;2023-07-08T14:41:49;9.93;;;4.93;;
19436;SDS011;9854;50.968;4.168;2023-07-08T14:46:55;8.23;;;4.53;;
19436;SDS011;9854;50.968;4.168;2023-07-08T14:49:22;9.85;;;4.13;;
19436;SDS011;9854;50.968;4.168;2023-07-08T14:51:48;9.75;;;3.85;;
19436;SDS011;9854;50.968;4.168;2023-07-08T14:54:19;13.27;;;3.83;;
19436;SDS011;9854;50.968;4.168;2023-07-08T14:56:45;6.38;;;3.90;;
19436;SDS011;9854;50.968;4.168;2023-07-08T14:59:23;11.30;;;4.05;;
19436;SDS011;9854;50.968;4.168;2023-07-08T15:01:51;8.27;;;4.60;;
19436;SDS011;9854;50.968;4.168;2023-07-08T15:04:18;8.88;;;4.35;;
19436;SDS011;9854;50.968;4.168;2023-07-08T15:06:45;10.40;;;4.43;;
19436;SDS011;9854;50.968;4.168;2023-07-08T15:09:11;10.45;;;3.95;;
19436;SDS011;9854;50.968;4.168;2023-07-08T15:11:39;5.18;;;4.07;;
19436;SDS011;9854;50.968;4.168;2023-07-08T15:14:09;7.88;;;4.35;;
19436;SDS011;9854;50.968;4.168;2023-07-08T15:16:47;6.70;;;4.20;;
19436;SDS011;9854;50.968;4.168;2023-07-08T15:19:13;6.55;;;3.75;;
19436;SDS011;9854;50.968;4.168;2023-07-08T15:21:39;8.73;;;4.65;;
19436;SDS011;9854;50.968;4.168;2023-07-08T15:24:08;7.70;;;3.75;;
19436;SDS011;9854;50.968;4.168;2023-07-08T15:26:36;9.88;;;4.00;;
19436;SDS011;9854;50.968;4.168;2023-07-08T15:29:02;12.43;;;4.47;;
19436;SDS011;9854;50.968;4.168;2023-07-08T15:31:28;7.15;;;4.65;;
19436;SDS011;9854;50.968;4.168;2023-07-08T15:33:58;11.48;;;4.30;;
19436;SDS011;9854;50.968;4.168;2023-07-08T15:36:24;6.20;;;3.30;;
19436;SDS011;9854;50.968;4.168;2023-07-08T15:38:50;5.85;;;3.92;;
19436;SDS011;9854;50.968;4.168;2023-07-08T15:41:18;8.45;;;4.00;;
19436;SDS011;9854;50.968;4.168;2023-07-08T15:43:48;7.60;;;4.32;;
19436;SDS011;9854;50.968;4.168;2023-07-08T15:46:14;8.40;;;3.78;;
19436;SDS011;9854;50.968;4.168;2023-07-08T15:48:40;10.63;;;4.78;;
19436;SDS011;9854;50.968;4.168;2023-07-08T15:51:07;10.20;;;3.90;;
19436;SDS011;9854;50.968;4.168;2023-07-08T15:53:33;11.95;;;4.20;;
19436;SDS011;9854;50.968;4.168;2023-07-08T15:55:59;9.88;;;4.22;;
19436;SDS011;9854;50.968;4.168;2023-07-08T15:58:27;7.18;;;4.57;;
19436;SDS011;9854;50.968;4.168;2023-07-08T16:00:56;5.13;;;3.90;;
19436;SDS011;9854;50.968;4.168;2023-07-08T16:03:24;8.55;;;4.20;;
19436;SDS011;9854;50.968;4.168;2023-07-08T16:05:52;8.65;;;4.35;;
19436;SDS011;9854;50.968;4.168;2023-07-08T16:08:18;6.85;;;4.40;;
19436;SDS011;9854;50.968;4.168;2023-07-08T16:11:01;5.35;;;3.97;;
19436;SDS011;9854;50.968;4.168;2023-07-08T16:13:31;9.43;;;4.07;;
19436;SDS011;9854;50.968;4.168;2023-07-08T16:15:59;8.57;;;4.28;;
19436;SDS011;9854;50.968;4.168;2023-07-08T16:18:25;5.80;;;3.85;;
19436;SDS011;9854;50.968;4.168;2023-07-08T16:20:51;8.68;;;3.63;;
19436;SDS011;9854;50.968;4.168;2023-07-08T16:23:17;6.20;;;3.60;;
19436;SDS011;9854;50.968;4.168;2023-07-08T16:25:46;5.93;;;3.60;;
19436;SDS011;9854;50.968;4.168;2023-07-08T16:28:33;8.93;;;3.28;;